createdAt,value
2018-06-17T00:02:07.481Z,14.90
2018-06-17T00:04:35.041Z,14.90
2018-06-17T00:07:02.620Z,14.90
2018-06-17T00:09:30.222Z,15.00
2018-06-17T00:11:57.745Z,15.00
2018-06-17T00:14:25.298Z,15.00
2018-06-17T00:16:52.849Z,15.00
2018-06-17T00:19:27.206Z,15.00
2018-06-17T00:21:55.501Z,14.90
2018-06-17T00:24:23.068Z,14.90
2018-06-17T00:26:50.678Z,14.90
2018-06-17T00:29:18.258Z,14.90
2018-06-17T00:31:46.129Z,14.90
2018-06-17T00:34:13.680Z,15.00
2018-06-17T00:36:41.378Z,15.00
2018-06-17T00:39:10.562Z,15.00
2018-06-17T00:41:38.173Z,15.10
2018-06-17T00:44:05.757Z,15.10
2018-06-17T00:46:33.722Z,15.10
2018-06-17T00:49:01.289Z,15.00
2018-06-17T00:51:28.830Z,15.10
2018-06-17T00:53:56.422Z,15.00
2018-06-17T00:56:24.408Z,15.00
2018-06-17T00:58:52.136Z,15.00
2018-06-17T01:01:19.833Z,15.00
2018-06-17T01:03:47.372Z,15.00
2018-06-17T01:06:14.918Z,15.00
2018-06-17T01:08:42.463Z,15.00
2018-06-17T01:11:10.016Z,15.00
2018-06-17T01:13:37.608Z,15.00
2018-06-17T01:16:05.241Z,14.90
2018-06-17T01:18:32.771Z,14.90
2018-06-17T01:21:00.437Z,15.00
2018-06-17T01:23:27.961Z,15.00
2018-06-17T01:25:55.514Z,15.00
2018-06-17T01:28:23.049Z,14.90
2018-06-17T01:30:50.645Z,14.80
2018-06-17T01:33:18.184Z,14.80
2018-06-17T01:35:45.881Z,14.80
2018-06-17T01:38:13.442Z,14.80
2018-06-17T01:40:41.145Z,14.70
2018-06-17T01:43:08.681Z,14.50
2018-06-17T01:45:36.221Z,14.50
2018-06-17T01:48:03.770Z,14.40
2018-06-17T01:50:31.339Z,14.40
2018-06-17T01:52:58.893Z,14.40
2018-06-17T01:55:26.885Z,14.30
2018-06-17T01:57:54.421Z,14.30
2018-06-17T02:00:21.993Z,14.30
2018-06-17T02:02:49.650Z,14.30
2018-06-17T02:05:22.841Z,14.30
2018-06-17T02:07:55.912Z,14.20
2018-06-17T02:10:29.833Z,14.20
2018-06-17T02:12:58.409Z,14.10
2018-06-17T02:15:25.974Z,14.10
2018-06-17T02:17:53.508Z,14.00
2018-06-17T02:20:21.069Z,14.00
2018-06-17T02:22:48.601Z,14.00
2018-06-17T02:25:16.132Z,14.00
2018-06-17T02:27:43.669Z,14.00
2018-06-17T02:30:11.257Z,14.00
2018-06-17T02:32:38.833Z,14.00
2018-06-17T02:35:06.396Z,14.00
2018-06-17T02:37:33.945Z,13.90
2018-06-17T02:40:01.478Z,13.90
2018-06-17T02:42:29.203Z,13.90
2018-06-17T02:47:07.225Z,13.90
2018-06-17T02:49:37.496Z,13.90
2018-06-17T02:52:11.801Z,13.70
2018-06-17T02:54:47.167Z,13.90
2018-06-17T02:57:15.932Z,13.80
2018-06-17T02:59:43.978Z,13.80
2018-06-17T03:02:12.682Z,13.80
2018-06-17T03:04:41.209Z,13.70
2018-06-17T03:07:08.769Z,13.70
2018-06-17T03:09:36.305Z,13.60
2018-06-17T03:12:06.055Z,13.60
2018-06-17T03:14:33.581Z,13.60
2018-06-17T03:17:01.219Z,13.60
2018-06-17T03:19:28.741Z,13.70
2018-06-17T03:21:56.277Z,13.70
2018-06-17T03:24:29.377Z,13.70
2018-06-17T03:27:02.682Z,13.70
2018-06-17T03:29:35.769Z,13.80
2018-06-17T03:32:09.197Z,13.80
2018-06-17T03:34:36.781Z,13.80
2018-06-17T03:37:04.512Z,13.80
2018-06-17T03:39:32.057Z,13.80
2018-06-17T03:41:59.632Z,13.80
2018-06-17T03:44:27.180Z,13.80
2018-06-17T03:47:02.985Z,13.80
2018-06-17T03:49:30.622Z,13.90
2018-06-17T03:51:58.166Z,13.90
2018-06-17T03:54:25.689Z,13.90
2018-06-17T03:56:53.288Z,13.80
2018-06-17T03:59:20.805Z,13.90
2018-06-17T04:01:48.916Z,13.90
2018-06-17T04:04:16.476Z,14.00
2018-06-17T04:06:44.036Z,14.00
2018-06-17T04:09:11.762Z,14.10
2018-06-17T04:11:39.308Z,14.20
2018-06-17T04:14:07.245Z,14.30
2018-06-17T04:16:34.869Z,14.40
2018-06-17T04:19:02.429Z,14.40
2018-06-17T04:21:29.963Z,14.40
2018-06-17T04:23:57.511Z,14.50
2018-06-17T04:26:25.035Z,14.50
2018-06-17T04:28:52.958Z,14.50
2018-06-17T04:31:20.976Z,14.40
2018-06-17T04:33:48.524Z,14.40
2018-06-17T04:36:16.115Z,14.50
2018-06-17T04:38:43.689Z,14.50
2018-06-17T04:41:11.234Z,14.60
2018-06-17T04:43:39.546Z,14.60
2018-06-17T04:46:07.076Z,14.80
2018-06-17T04:48:34.740Z,14.80
2018-06-17T04:51:02.307Z,14.90
2018-06-17T04:53:30.017Z,15.00
2018-06-17T04:55:57.529Z,15.10
2018-06-17T04:58:25.054Z,15.10
2018-06-17T05:00:52.595Z,15.20
2018-06-17T05:03:20.136Z,15.20
2018-06-17T05:05:47.736Z,15.40
2018-06-17T05:08:15.317Z,15.50
2018-06-17T05:10:42.880Z,15.60
2018-06-17T05:13:10.545Z,15.60
2018-06-17T05:15:38.086Z,15.70
2018-06-17T05:18:05.793Z,15.70
2018-06-17T05:20:33.345Z,15.80
2018-06-17T05:23:01.600Z,15.80
2018-06-17T05:25:29.126Z,15.80
2018-06-17T05:27:56.684Z,15.80
2018-06-17T05:30:24.217Z,15.90
2018-06-17T05:32:55.041Z,15.90
2018-06-17T05:35:22.958Z,15.90
2018-06-17T05:37:50.576Z,16.00
2018-06-17T05:40:18.153Z,16.00
2018-06-17T05:42:45.710Z,16.00
2018-06-17T05:45:13.266Z,16.00
2018-06-17T05:47:40.825Z,16.30
2018-06-17T05:50:11.937Z,16.40
2018-06-17T05:52:39.533Z,16.60
2018-06-17T05:55:08.293Z,16.60
2018-06-17T05:57:35.938Z,16.60
2018-06-17T06:00:03.697Z,16.60
2018-06-17T06:02:31.213Z,16.60
2018-06-17T06:04:58.757Z,16.70
2018-06-17T06:07:30.280Z,16.60
2018-06-17T06:09:58.014Z,16.70
2018-06-17T06:12:25.638Z,16.60
2018-06-17T06:14:53.509Z,16.70
2018-06-17T06:17:21.081Z,16.70
2018-06-17T06:19:49.289Z,16.80
2018-06-17T06:22:18.408Z,16.90
2018-06-17T06:24:46.097Z,17.00
2018-06-17T06:27:14.516Z,17.20
2018-06-17T06:29:42.073Z,17.20
2018-06-17T06:32:09.633Z,17.20
2018-06-17T06:34:37.477Z,17.20
2018-06-17T06:37:05.186Z,17.20
2018-06-17T06:39:33.589Z,17.20
2018-06-17T06:42:01.252Z,17.20
2018-06-17T06:44:28.789Z,17.30
2018-06-17T06:46:57.278Z,17.30
2018-06-17T06:49:24.854Z,17.30
2018-06-17T06:51:52.389Z,17.30
2018-06-17T06:54:19.914Z,17.40
2018-06-17T06:56:47.648Z,17.40
2018-06-17T06:59:15.177Z,17.60
2018-06-17T07:01:54.373Z,17.70
2018-06-17T07:04:34.520Z,17.70
2018-06-17T07:07:13.833Z,18.00
2018-06-17T07:09:52.838Z,18.00
2018-06-17T07:12:20.536Z,18.10
2018-06-17T07:14:48.126Z,18.10
2018-06-17T07:17:27.841Z,18.10
2018-06-17T07:19:56.324Z,18.20
2018-06-17T07:22:24.007Z,18.20
2018-06-17T07:24:51.553Z,18.20
2018-06-17T07:27:30.282Z,18.30
2018-06-17T07:29:57.886Z,18.40
2018-06-17T07:32:28.577Z,18.50
2018-06-17T07:34:56.161Z,18.40
2018-06-17T07:37:23.733Z,18.50
2018-06-17T07:40:55.350Z,18.70
2018-06-17T07:43:22.890Z,18.90
2018-06-17T07:45:50.455Z,19.10
2018-06-17T07:49:30.506Z,19.20
2018-06-17T07:53:12.394Z,19.30
2018-06-17T07:55:39.934Z,19.30
2018-06-17T07:58:07.473Z,19.60
2018-06-17T08:00:35.077Z,19.70
2018-06-17T08:03:02.942Z,19.70
2018-06-17T08:05:30.542Z,19.70
2018-06-17T08:07:58.061Z,19.40
2018-06-17T08:10:25.645Z,19.50
2018-06-17T08:12:53.169Z,19.60
2018-06-17T08:15:20.696Z,19.70
2018-06-17T08:17:48.932Z,19.80
2018-06-17T08:20:31.311Z,19.80
2018-06-17T08:22:59.040Z,20.20
2018-06-17T08:25:26.638Z,20.40
2018-06-17T08:27:55.202Z,20.20
2018-06-17T08:30:25.662Z,20.00
2018-06-17T08:32:53.328Z,19.90
2018-06-17T08:35:20.840Z,19.60
2018-06-17T08:37:48.373Z,19.60
2018-06-17T08:40:16.189Z,19.60
2018-06-17T08:42:43.729Z,19.70
2018-06-17T08:45:11.341Z,19.90
2018-06-17T08:47:40.061Z,20.00
2018-06-17T08:50:07.612Z,20.10
2018-06-17T08:52:35.153Z,20.20
2018-06-17T08:55:02.775Z,20.20
2018-06-17T08:57:30.388Z,20.40
2018-06-17T08:59:57.917Z,20.50
2018-06-17T09:02:25.492Z,20.60
2018-06-17T09:04:53.160Z,20.50
2018-06-17T09:07:20.718Z,20.50
2018-06-17T09:09:48.352Z,20.40
2018-06-17T09:12:15.874Z,20.60
2018-06-17T09:14:43.486Z,20.80
2018-06-17T09:17:11.014Z,21.10
2018-06-17T09:19:38.578Z,21.20
2018-06-17T09:22:06.086Z,20.90
2018-06-17T09:24:33.739Z,21.20
2018-06-17T09:27:02.078Z,21.30
2018-06-17T09:29:29.686Z,21.00
2018-06-17T09:31:57.283Z,21.00
2018-06-17T09:34:24.832Z,20.90
2018-06-17T09:36:55.284Z,20.90
2018-06-17T09:39:25.792Z,20.70
2018-06-17T09:41:53.341Z,20.80
2018-06-17T09:44:20.895Z,20.70
2018-06-17T09:46:48.441Z,20.80
2018-06-17T09:49:16.587Z,20.70
2018-06-17T09:51:45.006Z,20.60
2018-06-17T09:54:12.537Z,20.60
2018-06-17T09:56:40.246Z,20.90
2018-06-17T09:59:07.799Z,20.90
2018-06-17T10:01:35.428Z,20.70
2018-06-17T10:04:03.026Z,20.50
2018-06-17T10:06:30.698Z,20.40
2018-06-17T10:08:58.401Z,20.60
2018-06-17T10:11:25.988Z,20.70
2018-06-17T10:13:53.639Z,20.70
2018-06-17T10:16:21.224Z,20.70
2018-06-17T10:18:48.810Z,21.10
2018-06-17T10:21:16.405Z,21.30
2018-06-17T10:23:43.925Z,21.50
2018-06-17T10:26:11.501Z,21.60
2018-06-17T10:28:39.117Z,21.80
2018-06-17T10:31:07.101Z,21.80
2018-06-17T10:33:35.421Z,22.00
2018-06-17T10:36:02.949Z,22.20
2018-06-17T10:38:30.801Z,22.20
2018-06-17T10:40:58.517Z,21.90
2018-06-17T10:43:27.662Z,21.80
2018-06-17T10:45:55.239Z,21.80
2018-06-17T10:48:22.821Z,21.80
2018-06-17T10:50:50.409Z,21.70
2018-06-17T10:53:18.068Z,21.90
2018-06-17T10:55:45.703Z,22.10
2018-06-17T10:58:13.166Z,22.10
2018-06-17T11:00:40.751Z,22.40
2018-06-17T11:03:08.317Z,22.10
2018-06-17T11:05:35.938Z,22.10
2018-06-17T11:08:04.756Z,21.90
2018-06-17T11:10:32.293Z,21.90
2018-06-17T11:13:00.241Z,21.90
2018-06-17T11:15:27.845Z,22.10
2018-06-17T11:17:55.394Z,21.90
2018-06-17T11:20:22.958Z,21.70
2018-06-17T11:22:51.988Z,21.60
2018-06-17T11:25:19.638Z,21.60
2018-06-17T11:27:47.257Z,21.70
2018-06-17T11:30:14.802Z,21.60
2018-06-17T11:32:42.433Z,21.50
2018-06-17T11:35:09.976Z,21.60
2018-06-17T11:37:37.609Z,21.50
2018-06-17T11:40:05.172Z,21.40
2018-06-17T11:42:32.826Z,21.30
2018-06-17T11:45:01.213Z,21.20
2018-06-17T11:47:28.754Z,21.10
2018-06-17T11:49:56.341Z,20.90
2018-06-17T11:52:23.857Z,21.10
2018-06-17T11:54:51.508Z,21.10
2018-06-17T11:57:19.079Z,21.00
2018-06-17T11:59:46.670Z,20.90
2018-06-17T12:02:14.145Z,20.80
2018-06-17T12:04:41.684Z,20.40
2018-06-17T12:07:09.336Z,20.60
2018-06-17T12:09:36.890Z,20.60
2018-06-17T12:12:04.615Z,20.70
2018-06-17T12:14:32.141Z,20.80
2018-06-17T12:16:59.685Z,21.10
2018-06-17T12:19:27.177Z,21.20
2018-06-17T12:21:54.733Z,21.20
2018-06-17T12:24:22.281Z,21.20
2018-06-17T12:26:49.809Z,21.00
2018-06-17T12:29:17.361Z,20.60
2018-06-17T12:31:44.961Z,20.60
2018-06-17T12:34:12.540Z,20.70
2018-06-17T12:36:40.077Z,21.00
2018-06-17T12:39:09.265Z,21.10
2018-06-17T12:41:36.873Z,21.10
2018-06-17T12:44:04.501Z,20.70
2018-06-17T12:46:32.066Z,20.70
2018-06-17T12:49:00.226Z,20.50
2018-06-17T12:51:27.785Z,20.30
2018-06-17T12:53:55.309Z,20.20
2018-06-17T12:56:22.844Z,20.10
2018-06-17T12:58:50.368Z,20.20
2018-06-17T13:01:17.920Z,19.90
2018-06-17T13:03:45.517Z,20.00
2018-06-17T13:06:13.069Z,20.10
2018-06-17T13:08:40.725Z,20.20
2018-06-17T13:11:08.344Z,20.20
2018-06-17T13:13:35.861Z,20.20
2018-06-17T13:16:03.458Z,20.40
2018-06-17T13:18:34.089Z,20.60
2018-06-17T13:21:01.812Z,20.90
2018-06-17T13:23:29.337Z,20.40
2018-06-17T13:25:57.011Z,20.40
2018-06-17T13:28:24.529Z,20.50
2018-06-17T13:30:52.189Z,20.90
2018-06-17T13:33:19.707Z,21.40
2018-06-17T13:35:47.317Z,22.40
2018-06-17T13:38:14.894Z,22.80
2018-06-17T13:40:42.437Z,22.70
2018-06-17T13:43:09.985Z,22.50
2018-06-17T13:45:37.525Z,22.00
2018-06-17T13:48:05.157Z,21.70
2018-06-17T13:50:32.789Z,22.10
2018-06-17T13:53:00.353Z,22.10
2018-06-17T13:55:27.921Z,22.10
2018-06-17T13:57:55.502Z,22.00
2018-06-17T14:00:23.045Z,22.10
2018-06-17T14:02:50.621Z,22.00
2018-06-17T14:05:18.174Z,22.20
2018-06-17T14:07:45.967Z,22.00
2018-06-17T14:10:13.504Z,21.80
2018-06-17T14:12:41.181Z,21.60
2018-06-17T14:15:09.213Z,21.50
2018-06-17T14:17:36.809Z,21.20
2018-06-17T14:20:05.454Z,21.00
2018-06-17T14:22:33.033Z,21.30
2018-06-17T14:25:00.590Z,21.20
2018-06-17T14:27:29.013Z,21.50
2018-06-17T14:29:56.721Z,21.50
2018-06-17T14:32:24.294Z,21.30
2018-06-17T14:34:51.952Z,21.40
2018-06-17T14:37:19.938Z,21.10
2018-06-17T14:39:47.533Z,21.10
2018-06-17T14:42:21.037Z,21.00
2018-06-17T14:44:54.261Z,21.10
2018-06-17T14:47:27.442Z,21.30
2018-06-17T14:50:00.576Z,21.10
2018-06-17T14:52:33.877Z,21.20
2018-06-17T14:55:04.177Z,21.40
2018-06-17T14:57:32.333Z,21.20
2018-06-17T14:59:59.880Z,20.40
2018-06-17T15:02:27.478Z,20.10
2018-06-17T15:04:55.044Z,19.80
2018-06-17T15:07:22.626Z,19.70
2018-06-17T15:09:51.650Z,19.30
2018-06-17T15:12:19.260Z,19.00
2018-06-17T15:14:46.797Z,18.90
2018-06-17T15:17:14.342Z,18.80
2018-06-17T15:19:41.893Z,18.80
2018-06-17T15:22:09.451Z,18.70
2018-06-17T15:24:37.005Z,18.60
2018-06-17T15:27:04.706Z,18.70
2018-06-17T15:29:32.266Z,18.90
2018-06-17T15:32:05.309Z,19.00
2018-06-17T15:34:38.545Z,19.10
2018-06-17T15:37:11.899Z,19.20
2018-06-17T15:39:44.962Z,19.50
2018-06-17T15:42:12.485Z,19.40
2018-06-17T15:44:41.138Z,19.40
2018-06-17T15:47:08.690Z,19.70
2018-06-17T15:49:36.293Z,19.80
2018-06-17T15:52:03.856Z,19.80
2018-06-17T15:54:31.422Z,19.70
2018-06-17T15:56:59.086Z,19.70
2018-06-17T15:59:26.624Z,19.80
2018-06-17T16:01:54.309Z,19.80
2018-06-17T16:04:21.880Z,19.80
2018-06-17T16:06:49.498Z,19.70
2018-06-17T16:09:17.061Z,19.60
2018-06-17T16:11:50.313Z,19.70
2018-06-17T16:14:25.006Z,19.80
2018-06-17T16:16:58.857Z,19.80
2018-06-17T16:19:32.977Z,19.90
2018-06-17T16:22:00.856Z,19.70
2018-06-17T16:24:28.530Z,19.50
2018-06-17T16:26:56.254Z,19.40
2018-06-17T16:29:23.815Z,19.40
2018-06-17T16:31:51.704Z,19.40
2018-06-17T16:34:19.353Z,19.20
2018-06-17T16:36:46.890Z,19.00
2018-06-17T16:39:14.569Z,19.10
2018-06-17T16:41:42.233Z,19.30
2018-06-17T16:44:10.527Z,19.40
2018-06-17T16:46:38.696Z,19.40
2018-06-17T16:49:06.478Z,19.20
2018-06-17T16:51:39.740Z,19.20
2018-06-17T16:54:13.201Z,19.30
2018-06-17T16:56:46.344Z,19.10
2018-06-17T16:59:19.778Z,19.00
2018-06-17T17:01:48.441Z,19.00
2018-06-17T17:04:16.032Z,18.90
2018-06-17T17:06:43.618Z,18.90
2018-06-17T17:09:11.482Z,18.90
2018-06-17T17:11:39.825Z,18.90
2018-06-17T17:14:07.677Z,18.90
2018-06-17T17:16:35.673Z,19.00
2018-06-17T17:19:03.624Z,19.00
2018-06-17T17:21:31.208Z,19.00
2018-06-17T17:23:59.535Z,19.10
2018-06-17T17:26:27.510Z,19.20
2018-06-17T17:28:55.401Z,19.30
2018-06-17T17:31:23.042Z,19.30
2018-06-17T17:33:56.497Z,19.20
2018-06-17T17:41:33.239Z,19.40
2018-06-17T17:44:00.782Z,19.20
2018-06-17T17:46:34.086Z,19.10
2018-06-17T17:49:01.629Z,19.10
2018-06-17T17:51:30.413Z,19.20
2018-06-17T17:53:58.516Z,19.30
2018-06-17T17:56:26.213Z,19.40
2018-06-17T17:58:54.105Z,19.50
2018-06-17T18:01:21.673Z,19.70
2018-06-17T18:03:49.498Z,19.90
2018-06-17T18:06:17.062Z,19.60
2018-06-17T18:11:13.064Z,19.40
2018-06-17T18:13:41.333Z,19.30
2018-06-17T18:16:08.906Z,19.10
2018-06-17T18:18:37.151Z,19.00
2018-06-17T18:21:04.849Z,19.00
2018-06-17T18:28:38.557Z,19.50
2018-06-17T18:31:06.635Z,19.60
2018-06-17T18:33:39.726Z,19.70
2018-06-17T18:36:10.981Z,19.40
2018-06-17T18:38:40.273Z,19.10
2018-06-17T18:41:09.705Z,19.00
2018-06-17T18:43:37.444Z,18.90
2018-06-17T18:46:05.055Z,18.80
2018-06-17T18:51:00.113Z,18.60
2018-06-17T18:53:27.681Z,18.50
2018-06-17T18:55:55.245Z,18.40
2018-06-17T18:58:23.188Z,18.40
2018-06-17T19:00:51.249Z,18.30
2018-06-17T19:03:19.238Z,18.10
2018-06-17T19:05:46.764Z,18.10
2018-06-17T19:08:21.005Z,18.00
2018-06-17T19:10:54.097Z,17.80
2018-06-17T19:13:27.333Z,17.80
2018-06-17T19:16:00.921Z,17.70
2018-06-17T19:18:28.736Z,17.60
2018-06-17T19:20:57.164Z,17.60
2018-06-17T19:23:24.780Z,17.60
2018-06-17T19:25:52.634Z,17.60
2018-06-17T19:28:20.437Z,17.60
2018-06-17T19:30:47.997Z,17.50
2018-06-17T19:33:15.544Z,17.40
2018-06-17T19:35:43.090Z,17.40
2018-06-17T19:38:10.933Z,17.40
2018-06-17T19:40:38.505Z,17.40
2018-06-17T19:43:06.130Z,17.30
2018-06-17T19:45:33.851Z,17.30
2018-06-17T19:48:01.602Z,17.30
2018-06-17T19:50:34.806Z,17.30
2018-06-17T19:53:07.947Z,17.30
2018-06-17T19:55:41.005Z,17.20
2018-06-17T19:58:14.233Z,17.20
2018-06-17T20:00:44.746Z,17.30
2018-06-17T20:03:12.358Z,17.30
2018-06-17T20:05:40.061Z,17.20
2018-06-17T20:08:07.617Z,17.30
2018-06-17T20:10:35.170Z,17.30
2018-06-17T20:13:02.730Z,17.20
2018-06-17T20:15:30.362Z,17.20
2018-06-17T20:17:57.937Z,17.20
2018-06-17T20:20:25.480Z,17.20
2018-06-17T20:22:53.026Z,17.20
2018-06-17T20:25:20.643Z,17.20
2018-06-17T20:27:48.706Z,17.10
2018-06-17T20:30:16.337Z,17.10
2018-06-17T20:32:50.097Z,17.10
2018-06-17T20:35:23.341Z,17.20
2018-06-17T20:37:56.587Z,17.20
2018-06-17T20:40:30.628Z,17.20
2018-06-17T20:43:04.492Z,17.20
2018-06-17T20:45:32.110Z,17.20
2018-06-17T20:48:00.546Z,17.30
2018-06-17T20:50:28.245Z,17.30
2018-06-17T20:52:55.823Z,17.30
2018-06-17T20:55:23.402Z,17.30
2018-06-17T20:57:50.930Z,17.30
2018-06-17T21:00:18.772Z,17.30
2018-06-17T21:02:46.633Z,17.30
2018-06-17T21:05:14.193Z,17.20
2018-06-17T21:07:41.786Z,17.30
2018-06-17T21:10:09.355Z,17.20
2018-06-17T21:15:09.793Z,17.10
2018-06-17T21:17:37.720Z,17.20
2018-06-17T21:20:10.805Z,17.10
2018-06-17T21:22:44.065Z,17.00
2018-06-17T21:25:17.180Z,17.10
2018-06-17T21:27:45.348Z,17.00
2018-06-17T21:30:14.047Z,16.90
2018-06-17T21:32:41.618Z,16.90
2018-06-17T21:35:10.486Z,16.90
2018-06-17T21:37:38.037Z,16.80
2018-06-17T21:40:05.789Z,16.80
2018-06-17T21:42:33.353Z,16.70
2018-06-17T21:45:00.925Z,16.70
2018-06-17T21:47:28.485Z,16.80
2018-06-17T21:49:56.021Z,16.80
2018-06-17T21:52:23.609Z,16.70
2018-06-17T21:54:51.157Z,16.70
2018-06-17T21:57:18.754Z,16.60
2018-06-17T21:59:47.102Z,16.60
2018-06-17T22:02:14.682Z,16.60
2018-06-17T22:04:42.284Z,16.60
2018-06-17T22:07:11.553Z,16.50
2018-06-17T22:09:44.801Z,16.50
2018-06-17T22:12:18.069Z,16.50
2018-06-17T22:14:51.497Z,16.50
2018-06-17T22:17:24.625Z,16.40
2018-06-17T22:19:53.905Z,16.40
2018-06-17T22:22:21.501Z,16.40
2018-06-17T22:24:49.040Z,16.40
2018-06-17T22:27:16.599Z,16.40
2018-06-17T22:29:44.625Z,16.40
2018-06-17T22:32:12.361Z,16.50
2018-06-17T22:34:40.047Z,16.50
2018-06-17T22:37:08.288Z,16.40
2018-06-17T22:39:37.148Z,16.40
2018-06-17T22:42:04.825Z,16.40
2018-06-17T22:44:32.372Z,16.40
2018-06-17T22:47:00.729Z,16.40
2018-06-17T22:49:28.277Z,16.40
2018-06-17T22:51:55.810Z,16.40
2018-06-17T22:54:34.702Z,16.40
2018-06-17T22:57:07.878Z,16.30
2018-06-17T22:59:41.771Z,16.40
2018-06-17T23:02:14.873Z,16.40
2018-06-17T23:04:48.106Z,16.40
2018-06-17T23:07:21.130Z,16.40
2018-06-17T23:09:50.497Z,16.30
2018-06-17T23:12:18.043Z,16.30
2018-06-17T23:14:45.625Z,16.30
2018-06-17T23:17:13.301Z,16.30
2018-06-17T23:19:40.848Z,16.30
2018-06-17T23:22:08.409Z,16.30
2018-06-17T23:24:35.969Z,16.30
2018-06-17T23:27:03.705Z,16.30
2018-06-17T23:29:31.253Z,16.30
2018-06-17T23:31:59.400Z,16.30
2018-06-17T23:34:26.965Z,16.20
2018-06-17T23:36:54.485Z,16.30
2018-06-17T23:41:49.505Z,16.30
2018-06-17T23:44:17.060Z,16.30
2018-06-17T23:46:50.338Z,16.30
2018-06-17T23:49:23.577Z,16.30
2018-06-17T23:51:56.721Z,16.20
2018-06-17T23:54:29.916Z,16.30
2018-06-17T23:56:57.511Z,16.30
2018-06-17T23:59:25.240Z,16.30
